createdAt,value
2023-03-18T00:02:10.526Z,100.00
2023-03-18T00:04:40.822Z,100.00
2023-03-18T00:07:09.349Z,100.00
2023-03-18T00:09:43.592Z,100.00
2023-03-18T00:12:12.329Z,100.00
2023-03-18T00:14:40.709Z,100.00
2023-03-18T00:17:10.837Z,100.00
2023-03-18T00:19:39.659Z,100.00
2023-03-18T00:22:08.438Z,100.00
2023-03-18T00:32:13.617Z,100.00
2023-03-18T00:34:42.027Z,100.00
2023-03-18T00:37:10.473Z,100.00
2023-03-18T00:39:44.374Z,100.00
2023-03-18T00:42:13.482Z,100.00
2023-03-18T00:44:44.146Z,100.00
2023-03-18T00:47:13.567Z,100.00
2023-03-18T00:49:42.142Z,100.00
2023-03-18T00:52:10.816Z,100.00
2023-03-18T00:54:42.419Z,100.00
2023-03-18T00:57:11.340Z,100.00
2023-03-18T00:59:40.248Z,100.00
2023-03-18T01:02:08.710Z,100.00
2023-03-18T01:04:38.251Z,100.00
2023-03-18T01:07:07.156Z,100.00
2023-03-18T01:09:37.101Z,100.00
2023-03-18T01:12:06.095Z,100.00
2023-03-18T01:14:36.424Z,100.00
2023-03-18T01:17:05.606Z,100.00
2023-03-18T01:19:35.889Z,100.00
2023-03-18T01:22:04.689Z,100.00
2023-03-18T01:24:36.589Z,100.00
2023-03-18T01:27:06.321Z,100.00
2023-03-18T01:29:35.546Z,100.00
2023-03-18T01:32:04.549Z,100.00
2023-03-18T01:34:32.833Z,100.00
2023-03-18T01:37:01.654Z,100.00
2023-03-18T01:39:31.150Z,100.00
2023-03-18T01:41:59.616Z,100.00
2023-03-18T01:46:31.379Z,100.00
2023-03-18T01:49:02.423Z,100.00
2023-03-18T01:51:31.261Z,100.00
2023-03-18T01:54:00.645Z,100.00
2023-03-18T01:56:29.140Z,100.00
2023-03-18T01:58:57.747Z,100.00
2023-03-18T02:01:39.288Z,100.00
2023-03-18T02:04:10.472Z,100.00
2023-03-18T02:06:42.440Z,100.00
2023-03-18T02:09:11.671Z,100.00
2023-03-18T02:11:44.322Z,100.00
2023-03-18T02:14:14.501Z,100.00
2023-03-18T02:16:49.186Z,100.00
2023-03-18T02:19:31.281Z,100.00
2023-03-18T02:22:18.004Z,100.00
2023-03-18T02:25:20.724Z,100.00
2023-03-18T02:27:51.279Z,100.00
2023-03-18T02:30:23.054Z,100.00
2023-03-18T02:32:52.499Z,100.00
2023-03-18T02:35:21.483Z,100.00
2023-03-18T02:37:51.008Z,100.00
2023-03-18T02:40:38.916Z,100.00
2023-03-18T02:43:29.097Z,100.00
2023-03-18T02:46:18.058Z,100.00
2023-03-18T02:48:49.035Z,100.00
2023-03-18T02:51:17.314Z,100.00
2023-03-18T02:53:48.461Z,100.00
2023-03-18T02:56:17.992Z,100.00
2023-03-18T02:58:46.678Z,100.00
2023-03-18T03:01:16.614Z,100.00
2023-03-18T03:03:46.059Z,100.00
2023-03-18T03:06:14.413Z,100.00
2023-03-18T03:08:42.913Z,100.00
2023-03-18T03:11:11.609Z,100.00
2023-03-18T03:13:40.848Z,100.00
2023-03-18T03:16:12.541Z,100.00
2023-03-18T03:18:42.144Z,100.00
2023-03-18T03:21:11.760Z,100.00
2023-03-18T03:23:40.559Z,100.00
2023-03-18T03:26:13.764Z,100.00
2023-03-18T03:28:44.950Z,100.00
2023-03-18T03:31:15.495Z,100.00
2023-03-18T03:33:45.566Z,100.00
2023-03-18T03:36:15.676Z,100.00
2023-03-18T03:38:45.611Z,100.00
2023-03-18T03:41:15.950Z,100.00
2023-03-18T03:43:44.979Z,100.00
2023-03-18T03:46:13.308Z,100.00
2023-03-18T03:48:42.686Z,100.00
2023-03-18T03:51:14.851Z,100.00
2023-03-18T03:53:46.421Z,100.00
2023-03-18T03:56:15.785Z,100.00
2023-03-18T03:58:46.184Z,100.00
2023-03-18T04:01:14.484Z,100.00
2023-03-18T04:03:44.517Z,100.00
2023-03-18T04:06:13.404Z,100.00
2023-03-18T04:08:47.702Z,100.00
2023-03-18T04:11:17.241Z,100.00
2023-03-18T04:13:45.728Z,100.00
2023-03-18T04:16:19.708Z,100.00
2023-03-18T04:18:50.828Z,100.00
2023-03-18T04:21:20.568Z,100.00
2023-03-18T04:23:52.345Z,100.00
2023-03-18T04:26:21.049Z,100.00
2023-03-18T04:28:49.696Z,100.00
2023-03-18T04:31:18.704Z,100.00
2023-03-18T04:33:47.650Z,100.00
2023-03-18T04:36:17.259Z,100.00
2023-03-18T04:38:46.483Z,100.00
2023-03-18T04:41:15.502Z,100.00
2023-03-18T04:43:45.151Z,100.00
2023-03-18T04:46:13.868Z,100.00
2023-03-18T04:48:44.705Z,100.00
2023-03-18T04:51:13.960Z,100.00
2023-03-18T04:53:49.850Z,100.00
2023-03-18T04:56:18.775Z,100.00
2023-03-18T04:58:50.885Z,100.00
2023-03-18T05:01:22.734Z,100.00
2023-03-18T05:03:51.761Z,100.00
2023-03-18T05:06:28.436Z,100.00
2023-03-18T05:09:05.445Z,100.00
2023-03-18T05:11:39.800Z,100.00
2023-03-18T05:14:16.432Z,100.00
2023-03-18T05:16:47.264Z,100.00
2023-03-18T05:19:18.885Z,100.00
2023-03-18T05:21:56.729Z,100.00
2023-03-18T05:24:25.824Z,100.00
2023-03-18T05:27:00.254Z,100.00
2023-03-18T05:29:33.735Z,100.00
2023-03-18T05:32:17.036Z,100.00
2023-03-18T05:34:46.942Z,100.00
2023-03-18T05:37:16.051Z,100.00
2023-03-18T05:39:50.864Z,100.00
2023-03-18T05:42:19.944Z,100.00
2023-03-18T05:44:54.399Z,100.00
2023-03-18T05:47:23.627Z,100.00
2023-03-18T05:50:01.690Z,100.00
2023-03-18T05:52:30.005Z,100.00
2023-03-18T05:55:02.496Z,100.00
2023-03-18T06:05:11.024Z,100.00
2023-03-18T06:07:39.539Z,100.00
2023-03-18T06:10:10.528Z,100.00
2023-03-18T06:12:39.514Z,100.00
2023-03-18T06:15:08.305Z,100.00
2023-03-18T06:17:39.999Z,100.00
2023-03-18T06:20:09.466Z,100.00
2023-03-18T06:22:38.156Z,100.00
2023-03-18T06:25:08.261Z,100.00
2023-03-18T06:27:38.991Z,100.00
2023-03-18T06:30:07.665Z,100.00
2023-03-18T06:32:37.639Z,100.00
2023-03-18T06:38:28.834Z,98.97
2023-03-18T06:40:59.920Z,97.92
2023-03-18T06:43:28.772Z,96.75
2023-03-18T06:45:57.168Z,95.78
2023-03-18T06:48:25.557Z,95.45
2023-03-18T06:50:54.442Z,94.72
2023-03-18T06:53:27.604Z,93.96
2023-03-18T06:55:56.951Z,93.33
2023-03-18T06:58:27.163Z,92.99
2023-03-18T07:01:01.758Z,92.66
2023-03-18T07:03:35.766Z,92.25
2023-03-18T07:06:08.089Z,91.93
2023-03-18T07:08:38.520Z,91.47
2023-03-18T07:11:07.384Z,91.18
2023-03-18T07:13:36.248Z,90.31
2023-03-18T07:16:05.884Z,89.52
2023-03-18T07:18:33.934Z,89.03
2023-03-18T07:21:04.432Z,88.66
2023-03-18T07:23:33.094Z,88.05
2023-03-18T07:26:01.489Z,87.29
2023-03-18T07:28:30.052Z,86.66
2023-03-18T07:30:58.380Z,86.04
2023-03-18T07:33:26.378Z,85.57
2023-03-18T07:35:55.551Z,85.38
2023-03-18T07:38:24.492Z,84.49
2023-03-18T07:40:52.664Z,83.32
2023-03-18T07:43:20.907Z,82.31
2023-03-18T07:45:51.352Z,81.22
2023-03-18T07:48:20.460Z,80.64
2023-03-18T07:50:48.573Z,80.40
2023-03-18T07:53:18.999Z,79.80
2023-03-18T07:55:47.200Z,79.33
2023-03-18T07:58:15.451Z,78.65
2023-03-18T08:00:45.229Z,78.89
2023-03-18T08:03:14.231Z,78.13
2023-03-18T08:05:44.678Z,76.99
2023-03-18T08:08:13.393Z,76.29
2023-03-18T08:10:43.048Z,75.34
2023-03-18T08:13:13.273Z,74.74
2023-03-18T08:15:41.443Z,74.83
2023-03-18T08:18:10.640Z,73.37
2023-03-18T08:20:39.814Z,72.62
2023-03-18T08:23:08.287Z,71.59
2023-03-18T08:25:36.358Z,71.31
2023-03-18T08:28:07.671Z,71.03
2023-03-18T08:30:35.987Z,71.42
2023-03-18T08:33:04.087Z,70.72
2023-03-18T08:35:34.319Z,69.32
2023-03-18T08:38:05.016Z,69.26
2023-03-18T08:40:34.925Z,70.06
2023-03-18T08:43:03.074Z,69.27
2023-03-18T08:45:31.811Z,69.02
2023-03-18T08:48:00.437Z,68.59
2023-03-18T08:50:29.803Z,67.90
2023-03-18T08:52:59.146Z,68.02
2023-03-18T08:55:34.533Z,66.49
2023-03-18T08:58:05.682Z,65.97
2023-03-18T09:00:34.820Z,65.58
2023-03-18T09:03:04.425Z,66.37
2023-03-18T09:05:33.511Z,65.66
2023-03-18T09:08:01.732Z,64.35
2023-03-18T09:10:30.453Z,63.76
2023-03-18T09:12:59.539Z,63.23
2023-03-18T09:15:27.704Z,63.07
2023-03-18T09:18:10.314Z,63.43
2023-03-18T09:20:43.244Z,63.88
2023-03-18T09:23:12.560Z,62.03
2023-03-18T09:25:42.803Z,61.08
2023-03-18T09:28:10.861Z,61.68
2023-03-18T09:30:42.568Z,62.06
2023-03-18T09:33:11.762Z,60.72
2023-03-18T09:35:47.638Z,59.60
2023-03-18T09:38:19.844Z,60.74
2023-03-18T09:41:08.656Z,61.00
2023-03-18T09:43:45.059Z,60.85
2023-03-18T09:46:36.696Z,59.67
2023-03-18T09:49:17.205Z,59.75
2023-03-18T09:51:48.067Z,60.85
2023-03-18T09:54:32.622Z,61.26
2023-03-18T09:57:01.236Z,59.86
2023-03-18T09:59:36.052Z,60.50
2023-03-18T10:02:04.453Z,61.46
2023-03-18T10:04:42.929Z,60.44
2023-03-18T10:07:32.083Z,61.03
2023-03-18T10:10:28.160Z,60.93
2023-03-18T10:13:08.603Z,60.45
2023-03-18T10:15:39.072Z,60.17
2023-03-18T10:18:22.148Z,61.12
2023-03-18T10:21:04.211Z,60.37
2023-03-18T10:23:54.584Z,61.05
2023-03-18T10:26:30.921Z,60.94
2023-03-18T10:29:41.059Z,61.46
2023-03-18T10:32:48.705Z,60.28
2023-03-18T10:35:39.099Z,60.89
2023-03-18T10:38:29.507Z,61.80
2023-03-18T10:40:57.698Z,62.34
2023-03-18T10:43:28.258Z,61.34
2023-03-18T10:46:04.104Z,61.78
2023-03-18T10:48:46.314Z,61.66
2023-03-18T10:51:31.583Z,61.85
2023-03-18T10:54:12.155Z,62.99
2023-03-18T10:56:41.235Z,62.35
2023-03-18T10:59:16.593Z,62.54
2023-03-18T11:01:46.961Z,62.62
2023-03-18T11:04:16.620Z,62.71
2023-03-18T11:06:58.952Z,62.67
2023-03-18T11:09:36.977Z,62.43
2023-03-18T11:12:14.628Z,62.95
2023-03-18T11:14:47.186Z,62.86
2023-03-18T11:17:33.610Z,62.87
2023-03-18T11:20:08.144Z,63.71
2023-03-18T11:22:37.163Z,64.33
2023-03-18T11:25:20.260Z,64.31
2023-03-18T11:28:03.815Z,64.41
2023-03-18T11:30:53.097Z,64.73
2023-03-18T11:33:23.436Z,65.44
2023-03-18T11:35:57.647Z,65.10
2023-03-18T11:38:32.749Z,65.20
2023-03-18T11:41:23.265Z,65.78
2023-03-18T11:44:01.797Z,66.00
2023-03-18T11:46:32.354Z,65.93
2023-03-18T11:49:01.009Z,65.48
2023-03-18T11:51:29.474Z,66.14
2023-03-18T11:54:22.179Z,67.20
2023-03-18T11:56:53.822Z,67.95
2023-03-18T11:59:48.608Z,68.09
2023-03-18T12:02:40.855Z,67.99
2023-03-18T12:05:16.946Z,67.64
2023-03-18T12:08:12.751Z,67.34
2023-03-18T12:10:48.331Z,67.46
2023-03-18T12:13:37.823Z,67.10
2023-03-18T12:16:29.047Z,66.61
2023-03-18T12:19:19.565Z,66.01
2023-03-18T12:22:14.073Z,65.90
2023-03-18T12:25:01.227Z,65.53
2023-03-18T12:27:41.827Z,65.50
2023-03-18T12:30:44.110Z,65.33
2023-03-18T12:40:06.489Z,65.66
2023-03-18T12:43:27.195Z,66.19
2023-03-18T12:46:03.175Z,65.93
2023-03-18T12:48:44.083Z,65.32
2023-03-18T12:51:15.434Z,65.27
2023-03-18T12:53:49.126Z,65.51
2023-03-18T12:56:23.617Z,65.22
2023-03-18T12:59:16.614Z,64.33
2023-03-18T13:01:59.671Z,65.47
2023-03-18T13:04:30.179Z,65.27
2023-03-18T13:07:15.899Z,65.08
2023-03-18T13:09:51.121Z,65.86
2023-03-18T13:12:55.749Z,66.77
2023-03-18T13:15:26.962Z,66.89
2023-03-18T13:18:00.038Z,66.25
2023-03-18T13:20:30.762Z,66.29
2023-03-18T13:23:29.604Z,66.15
2023-03-18T13:26:18.940Z,65.80
2023-03-18T13:29:00.238Z,66.60
2023-03-18T13:31:41.210Z,67.00
2023-03-18T13:34:28.147Z,66.34
2023-03-18T13:37:37.813Z,66.37
2023-03-18T13:40:24.995Z,67.19
2023-03-18T13:42:56.690Z,67.35
2023-03-18T14:05:01.454Z,67.44
2023-03-18T14:07:29.832Z,67.38
2023-03-18T14:10:17.152Z,67.05
2023-03-18T14:12:49.543Z,67.18
2023-03-18T14:15:53.934Z,67.55
2023-03-18T14:18:27.666Z,68.00
2023-03-18T14:20:59.913Z,68.31
2023-03-18T14:23:47.604Z,68.71
2023-03-18T14:26:24.046Z,68.91
2023-03-18T14:29:07.294Z,69.31
2023-03-18T14:31:38.412Z,69.39
2023-03-18T14:34:19.002Z,69.42
2023-03-18T14:36:53.281Z,69.42
2023-03-18T14:39:29.037Z,69.75
2023-03-18T14:42:00.580Z,69.59
2023-03-18T14:44:36.160Z,69.70
2023-03-18T14:47:06.296Z,69.88
2023-03-18T14:49:44.088Z,69.81
2023-03-18T14:52:27.740Z,70.03
2023-03-18T14:54:57.410Z,70.22
2023-03-18T14:57:25.844Z,70.32
2023-03-18T15:00:00.313Z,70.09
2023-03-18T15:02:35.230Z,70.78
2023-03-18T15:05:03.453Z,70.76
2023-03-18T15:07:34.670Z,70.69
2023-03-18T15:10:11.005Z,71.05
2023-03-18T15:12:42.511Z,71.41
2023-03-18T15:15:14.523Z,71.55
2023-03-18T15:17:49.133Z,71.58
2023-03-18T15:20:22.148Z,71.73
2023-03-18T15:22:50.400Z,71.72
2023-03-18T15:25:20.732Z,72.08
2023-03-18T15:27:49.015Z,72.27
2023-03-18T15:30:50.365Z,72.77
2023-03-18T15:40:26.120Z,73.94
2023-03-18T15:42:58.453Z,73.85
2023-03-18T15:45:29.677Z,74.13
2023-03-18T15:47:58.430Z,74.55
2023-03-18T15:50:30.774Z,74.92
2023-03-18T15:53:26.157Z,75.24
2023-03-18T16:03:35.242Z,76.58
2023-03-18T16:06:05.360Z,76.72
2023-03-18T16:08:33.778Z,76.94
2023-03-18T16:11:04.050Z,77.57
2023-03-18T16:13:34.702Z,77.54
2023-03-18T16:16:03.726Z,77.88
2023-03-18T16:18:35.037Z,78.17
2023-03-18T16:21:03.336Z,78.65
2023-03-18T16:23:31.576Z,78.92
2023-03-18T16:25:59.877Z,79.17
2023-03-18T16:28:28.593Z,79.34
2023-03-18T16:30:57.721Z,79.71
2023-03-18T16:33:26.212Z,79.88
2023-03-18T16:35:59.211Z,79.65
2023-03-18T16:38:28.481Z,80.30
2023-03-18T16:40:57.659Z,80.57
2023-03-18T16:43:31.387Z,80.83
2023-03-18T16:46:01.385Z,81.40
2023-03-18T16:48:32.036Z,81.52
2023-03-18T16:51:02.888Z,81.94
2023-03-18T16:53:34.453Z,82.26
2023-03-18T16:56:19.051Z,82.78
2023-03-18T16:58:52.340Z,83.03
2023-03-18T17:01:21.539Z,83.49
2023-03-18T17:03:49.681Z,83.98
2023-03-18T17:06:17.767Z,84.37
2023-03-18T17:08:47.759Z,84.88
2023-03-18T17:11:18.197Z,85.21
2023-03-18T17:13:48.780Z,85.60
2023-03-18T17:16:19.299Z,85.92
2023-03-18T17:18:48.123Z,85.90
2023-03-18T17:21:18.455Z,86.48
2023-03-18T17:23:47.801Z,86.54
2023-03-18T17:26:16.601Z,86.97
2023-03-18T17:28:48.240Z,87.37
2023-03-18T17:31:16.911Z,87.31
2023-03-18T17:33:50.909Z,87.71
